Time;durP1;ratioP1;P1;durP2;ratioP2;P2;SDS_P1;SDS_P2;PMS_P1;PMS_P2;Temp;Humidity;BMP_temperature;BMP_pressure;BME280_temperature;BME280_humidity;BME280_pressure;Samples;Min_cycle;Max_cycle;Signal;HPM_P1;HPM_P2
2023/07/16 00:00:18;;;;;;;3.88;1.70;;;;;;;;;;5028587;28;20435;-77
2023/07/16 00:02:44;;;;;;;3.90;1.30;;;;;;;;;;5027666;28;20102;-77
2023/07/16 00:05:13;;;;;;;6.25;1.88;;;;;;;;;;5030170;28;20037;-77
2023/07/16 00:07:39;;;;;;;4.75;1.80;;;;;;;;;;5029000;28;20183;-77
2023/07/16 00:10:20;;;;;;;6.13;1.77;;;;;;;;;;5028546;28;20123;-77
2023/07/16 00:12:47;;;;;;;7.30;2.05;;;;;;;;;;5046754;28;20037;-77
2023/07/16 00:15:15;;;;;;;10.57;2.42;;;;;;;;;;5047283;28;20029;-77
2023/07/16 00:17:41;;;;;;;4.47;1.75;;;;;;;;;;5045832;28;20112;-77
2023/07/16 00:20:51;;;;;;;8.25;1.75;;;;;;;;;;5038480;28;20070;-77
2023/07/16 00:23:17;;;;;;;5.82;1.60;;;;;;;;;;5018511;28;20038;-78
2023/07/16 00:25:43;;;;;;;5.07;1.77;;;;;;;;;;5029409;28;20048;-78
2023/07/16 00:28:08;;;;;;;5.40;2.30;;;;;;;;;;5026740;28;20079;-78
2023/07/16 00:30:34;;;;;;;6.07;2.00;;;;;;;;;;5027383;28;20042;-77
2023/07/16 00:36:09;;;;;;;6.50;1.90;;;;;;;;;;5026863;28;20048;-77
2023/07/16 00:38:37;;;;;;;6.65;1.85;;;;;;;;;;5028368;28;20040;-77
2023/07/16 00:41:03;;;;;;;5.05;2.00;;;;;;;;;;5029513;28;20103;-77
2023/07/16 00:43:29;;;;;;;5.38;2.05;;;;;;;;;;5028461;28;20033;-77
2023/07/16 00:45:57;;;;;;;4.00;1.80;;;;;;;;;;5028226;28;20042;-78
2023/07/16 00:48:24;;;;;;;5.15;1.92;;;;;;;;;;5028611;28;20125;-78
2023/07/16 00:50:52;;;;;;;4.90;1.63;;;;;;;;;;5027834;28;20034;-77
2023/07/16 00:53:19;;;;;;;5.03;2.15;;;;;;;;;;5028905;28;20033;-77
2023/07/16 00:55:45;;;;;;;5.85;2.42;;;;;;;;;;5028099;28;20037;-78
2023/07/16 00:58:11;;;;;;;4.50;2.20;;;;;;;;;;5028298;28;20065;-78
2023/07/16 01:01:04;;;;;;;5.50;1.90;;;;;;;;;;5027801;28;20033;-78
2023/07/16 01:03:40;;;;;;;3.47;1.95;;;;;;;;;;5027583;28;20044;-78
2023/07/16 01:06:53;;;;;;;;;;;;;;;;;;;;;
2023/07/16 01:09:20;;;;;;;6.77;1.90;;;;;;;;;;4963549;28;20044;-77
2023/07/16 01:12:03;;;;;;;4.68;1.95;;;;;;;;;;5031497;28;20363;-81
2023/07/16 01:15:04;;;;;;;4.80;2.10;;;;;;;;;;5039112;28;20025;-78
2023/07/16 01:17:37;;;;;;;4.05;1.95;;;;;;;;;;5054185;28;20037;-78
2023/07/16 01:20:03;;;;;;;3.50;1.60;;;;;;;;;;5037892;28;20021;-78
2023/07/16 01:22:40;;;;;;;7.03;2.05;;;;;;;;;;5027270;28;20051;-78
2023/07/16 01:26:00;;;;;;;4.97;2.28;;;;;;;;;;5028365;28;20728;-77
2023/07/16 01:28:47;;;;;;;4.97;2.15;;;;;;;;;;5026044;28;20546;-78
2023/07/16 01:31:14;;;;;;;5.47;2.20;;;;;;;;;;5025947;28;20572;-78
2023/07/16 01:33:42;;;;;;;8.45;2.00;;;;;;;;;;5027470;28;20038;-77
2023/07/16 01:36:08;;;;;;;7.25;2.58;;;;;;;;;;5026459;28;20573;-78
2023/07/16 01:38:38;;;;;;;5.43;2.72;;;;;;;;;;5027093;28;20034;-78
2023/07/16 01:41:04;;;;;;;6.70;2.63;;;;;;;;;;5027855;28;20057;-78
2023/07/16 01:43:30;;;;;;;6.60;2.35;;;;;;;;;;5026246;28;20415;-77
2023/07/16 01:46:29;;;;;;;8.32;2.70;;;;;;;;;;5028732;28;20044;-78
2023/07/16 01:49:06;;;;;;;7.65;2.70;;;;;;;;;;5020614;28;20037;-78
2023/07/16 01:51:38;;;;;;;7.43;3.30;;;;;;;;;;5027889;28;20050;-81
2023/07/16 01:54:05;;;;;;;9.18;2.83;;;;;;;;;;5027018;28;20038;-78
2023/07/16 01:56:45;;;;;;;5.28;3.10;;;;;;;;;;5028627;28;20437;-78
2023/07/16 01:59:12;;;;;;;7.03;3.40;;;;;;;;;;5024953;28;20103;-78
2023/07/16 02:02:24;;;;;;;8.30;2.92;;;;;;;;;;5026595;28;20061;-78
2023/07/16 02:04:50;;;;;;;8.63;3.63;;;;;;;;;;5021033;28;20080;-78
2023/07/16 02:07:16;;;;;;;6.35;2.80;;;;;;;;;;5025899;28;20069;-78
2023/07/16 02:09:42;;;;;;;8.57;3.47;;;;;;;;;;5026550;28;20029;-78
2023/07/16 02:12:08;;;;;;;6.88;3.75;;;;;;;;;;5039987;28;20064;-78
2023/07/16 02:14:33;;;;;;;7.40;3.00;;;;;;;;;;5047218;28;20063;-77
2023/07/16 02:16:59;;;;;;;8.10;3.22;;;;;;;;;;5045487;28;20056;-78
2023/07/16 02:19:52;;;;;;;6.85;3.47;;;;;;;;;;5040819;28;20046;-78
2023/07/16 02:22:18;;;;;;;7.55;2.85;;;;;;;;;;5027646;28;20045;-78
2023/07/16 02:25:46;;;;;;;6.82;2.85;;;;;;;;;;5026979;28;20040;-78
2023/07/16 02:28:12;;;;;;;7.55;2.65;;;;;;;;;;4967367;28;20050;-78
2023/07/16 02:30:43;;;;;;;6.28;3.00;;;;;;;;;;5005949;28;20042;-78
2023/07/16 02:33:11;;;;;;;6.50;2.95;;;;;;;;;;5021111;28;20073;-77
2023/07/16 02:35:52;;;;;;;7.05;2.97;;;;;;;;;;5006359;28;20522;-77
2023/07/16 02:38:18;;;;;;;8.15;2.83;;;;;;;;;;5006897;28;20531;-77
2023/07/16 02:40:49;;;;;;;6.22;2.80;;;;;;;;;;5005497;28;20033;-77
2023/07/16 02:43:18;;;;;;;5.80;2.72;;;;;;;;;;5005685;28;20046;-78
2023/07/16 02:45:44;;;;;;;6.55;2.78;;;;;;;;;;5006152;28;20124;-78
2023/07/16 02:48:18;;;;;;;12.65;3.60;;;;;;;;;;5006893;28;20117;-78
2023/07/16 02:50:44;;;;;;;6.50;3.20;;;;;;;;;;5005594;28;20531;-78
2023/07/16 02:53:10;;;;;;;7.72;3.00;;;;;;;;;;5005754;28;20022;-78
2023/07/16 02:55:36;;;;;;;8.18;3.13;;;;;;;;;;5006920;28;20049;-78
2023/07/16 02:58:05;;;;;;;7.43;2.80;;;;;;;;;;5008009;28;20037;-78
2023/07/16 03:00:34;;;;;;;9.45;3.50;;;;;;;;;;5005890;28;20033;-78
2023/07/16 03:03:03;;;;;;;10.48;3.10;;;;;;;;;;5006942;28;20060;-78
2023/07/16 03:05:36;;;;;;;8.15;3.45;;;;;;;;;;5006399;28;20084;-78
2023/07/16 03:08:01;;;;;;;7.57;3.33;;;;;;;;;;5006593;28;20052;-78
2023/07/16 03:10:30;;;;;;;7.00;3.35;;;;;;;;;;5005738;28;20459;-78
2023/07/16 03:12:57;;;;;;;7.75;3.30;;;;;;;;;;5042692;28;20048;-78
2023/07/16 03:15:23;;;;;;;8.73;3.33;;;;;;;;;;5041645;28;20068;-78
2023/07/16 03:17:57;;;;;;;12.07;3.67;;;;;;;;;;5045968;28;20668;-78
2023/07/16 03:21:14;;;;;;;;;;;;;;;;;;;;;
2023/07/16 03:30:23;;;;;;;8.00;3.33;;;;;;;;;;4879604;28;20130;-78
2023/07/16 03:32:55;;;;;;;7.43;3.53;;;;;;;;;;5004665;28;20033;-77
2023/07/16 03:35:22;;;;;;;7.65;3.53;;;;;;;;;;5024635;28;20025;-77
2023/07/16 03:38:00;;;;;;;;;;;;;;;;;;;;;
2023/07/16 03:40:27;;;;;;;11.10;4.80;;;;;;;;;;5022957;28;20044;-77
2023/07/16 03:42:59;;;;;;;10.60;3.63;;;;;;;;;;5025914;28;20045;-77
2023/07/16 03:45:25;;;;;;;12.75;3.97;;;;;;;;;;5023158;28;20112;-78
2023/07/16 03:47:54;;;;;;;13.13;4.03;;;;;;;;;;5024045;28;20040;-78
2023/07/16 03:50:27;;;;;;;10.80;3.75;;;;;;;;;;5026342;28;20036;-78
2023/07/16 03:53:42;;;;;;;8.57;3.47;;;;;;;;;;5026625;28;20430;-78
2023/07/16 03:56:08;;;;;;;7.93;3.47;;;;;;;;;;5013314;28;20128;-78
2023/07/16 03:58:34;;;;;;;8.57;3.55;;;;;;;;;;5024251;28;20041;-78
2023/07/16 04:01:00;;;;;;;9.23;3.67;;;;;;;;;;5026727;28;20088;-78
2023/07/16 04:04:18;;;;;;;8.35;3.78;;;;;;;;;;5025945;28;20056;-78
2023/07/16 04:06:47;;;;;;;8.88;3.95;;;;;;;;;;4906631;29;20052;-78
2023/07/16 04:09:15;;;;;;;8.90;3.78;;;;;;;;;;5021521;28;20033;-77
2023/07/16 04:11:51;;;;;;;11.27;3.83;;;;;;;;;;5031614;28;20052;-78
2023/07/16 04:14:20;;;;;;;8.10;3.42;;;;;;;;;;5049471;28;20033;-77
2023/07/16 04:16:45;;;;;;;9.25;3.95;;;;;;;;;;5048774;28;20503;-78
2023/07/16 04:19:11;;;;;;;8.55;4.57;;;;;;;;;;5044705;28;20037;-78
2023/07/16 04:21:37;;;;;;;8.68;4.50;;;;;;;;;;5029849;28;20546;-80
2023/07/16 04:24:03;;;;;;;10.98;4.82;;;;;;;;;;5028165;28;20515;-81
2023/07/16 04:26:29;;;;;;;11.50;4.20;;;;;;;;;;5028315;28;20048;-80
2023/07/16 04:28:55;;;;;;;10.10;4.72;;;;;;;;;;5029533;28;20483;-81
2023/07/16 04:31:21;;;;;;;11.90;4.53;;;;;;;;;;5029000;28;20072;-78
2023/07/16 04:33:50;;;;;;;7.65;4.22;;;;;;;;;;5026753;28;20123;-78
2023/07/16 04:36:16;;;;;;;13.43;4.53;;;;;;;;;;5028756;28;20045;-77
2023/07/16 04:38:51;;;;;;;10.52;4.35;;;;;;;;;;5029326;28;20047;-77
2023/07/16 04:41:17;;;;;;;11.40;4.10;;;;;;;;;;5029430;28;20057;-78
2023/07/16 04:43:43;;;;;;;9.85;4.50;;;;;;;;;;5026773;28;20049;-78
2023/07/16 04:46:09;;;;;;;11.63;4.72;;;;;;;;;;5029005;28;20592;-78
2023/07/16 04:51:33;;;;;;;8.35;3.97;;;;;;;;;;5027562;28;20033;-78
2023/07/16 04:58:00;;;;;;;11.00;4.63;;;;;;;;;;5005033;28;20088;-78
2023/07/16 05:01:18;;;;;;;11.23;4.43;;;;;;;;;;5002253;28;20030;-78
2023/07/16 05:03:46;;;;;;;11.35;4.53;;;;;;;;;;4995612;28;20038;-78
2023/07/16 05:06:15;;;;;;;11.07;4.82;;;;;;;;;;5027179;28;20033;-78
2023/07/16 05:08:41;;;;;;;14.05;5.18;;;;;;;;;;5028038;28;20030;-78
2023/07/16 05:11:06;;;;;;;14.73;5.10;;;;;;;;;;5027636;28;20029;-78
2023/07/16 05:13:38;;;;;;;8.77;4.43;;;;;;;;;;5045569;28;20033;-78
2023/07/16 05:16:04;;;;;;;11.68;4.35;;;;;;;;;;5048366;28;20069;-78
2023/07/16 05:18:30;;;;;;;10.55;4.30;;;;;;;;;;5047336;28;20405;-78
2023/07/16 05:20:58;;;;;;;11.02;4.70;;;;;;;;;;5031201;28;20042;-78
2023/07/16 05:23:23;;;;;;;11.20;4.68;;;;;;;;;;5027761;28;20060;-78
2023/07/16 05:25:53;;;;;;;11.20;4.57;;;;;;;;;;5002263;28;20057;-78
2023/07/16 05:28:19;;;;;;;10.20;4.45;;;;;;;;;;5022605;28;20029;-77
2023/07/16 05:30:47;;;;;;;10.15;4.70;;;;;;;;;;5028098;28;20038;-78
2023/07/16 05:36:10;;;;;;;13.82;4.97;;;;;;;;;;5032471;28;20036;-78
2023/07/16 05:38:40;;;;;;;8.70;4.10;;;;;;;;;;5029505;28;20030;-78
2023/07/16 05:41:09;;;;;;;15.52;5.03;;;;;;;;;;5027016;28;20881;-78
2023/07/16 05:43:35;;;;;;;12.48;4.50;;;;;;;;;;5026187;28;20511;-78
2023/07/16 05:46:00;;;;;;;12.93;5.53;;;;;;;;;;5025506;28;20037;-78
2023/07/16 05:48:26;;;;;;;14.23;4.78;;;;;;;;;;5025654;28;20412;-77
2023/07/16 05:50:53;;;;;;;14.70;5.22;;;;;;;;;;5025165;28;20579;-78
2023/07/16 05:53:21;;;;;;;9.93;4.15;;;;;;;;;;5025560;28;20242;-78
2023/07/16 05:55:49;;;;;;;13.40;5.07;;;;;;;;;;5027109;28;20025;-78
2023/07/16 05:58:16;;;;;;;15.48;5.30;;;;;;;;;;5028408;28;20061;-77
2023/07/16 06:00:42;;;;;;;9.20;5.03;;;;;;;;;;5024235;28;20037;-78
2023/07/16 06:03:08;;;;;;;12.20;5.10;;;;;;;;;;5029362;28;20100;-78
2023/07/16 06:05:51;;;;;;;16.33;5.32;;;;;;;;;;5028004;28;20438;-78
2023/07/16 06:08:17;;;;;;;13.85;5.43;;;;;;;;;;5027190;28;20025;-78
2023/07/16 06:10:42;;;;;;;15.23;4.72;;;;;;;;;;5027683;28;20033;-78
2023/07/16 06:13:08;;;;;;;10.55;5.00;;;;;;;;;;5025694;28;20060;-78
2023/07/16 06:15:34;;;;;;;11.30;5.18;;;;;;;;;;5024783;28;20037;-78
2023/07/16 06:18:02;;;;;;;13.85;4.65;;;;;;;;;;5025210;28;20033;-78
2023/07/16 06:20:36;;;;;;;14.93;5.60;;;;;;;;;;5025022;28;20025;-78
2023/07/16 06:23:05;;;;;;;13.05;4.80;;;;;;;;;;5027038;28;20070;-78
2023/07/16 06:25:31;;;;;;;14.32;5.45;;;;;;;;;;5026522;28;20064;-78
2023/07/16 06:27:59;;;;;;;14.32;4.88;;;;;;;;;;5025250;28;20037;-78
2023/07/16 06:30:25;;;;;;;12.57;4.93;;;;;;;;;;5026613;28;20048;-78
2023/07/16 06:32:54;;;;;;;11.80;4.82;;;;;;;;;;5025878;28;20033;-78
2023/07/16 06:35:22;;;;;;;10.13;4.20;;;;;;;;;;5024995;28;20040;-78
2023/07/16 06:37:50;;;;;;;15.32;5.15;;;;;;;;;;5026226;28;20028;-77
2023/07/16 06:40:16;;;;;;;10.55;5.05;;;;;;;;;;5025835;28;20045;-78
2023/07/16 06:42:42;;;;;;;12.20;5.03;;;;;;;;;;5025508;28;20045;-78
2023/07/16 06:45:08;;;;;;;13.70;5.28;;;;;;;;;;5026903;28;20113;-77
2023/07/16 06:47:42;;;;;;;13.18;5.13;;;;;;;;;;5025629;28;20622;-78
2023/07/16 06:50:08;;;;;;;13.38;5.13;;;;;;;;;;5025353;28;20030;-78
2023/07/16 06:53:09;;;;;;;13.45;5.05;;;;;;;;;;5023959;28;20036;-78
2023/07/16 06:55:35;;;;;;;11.57;4.50;;;;;;;;;;5022245;28;20140;-78
2023/07/16 06:58:01;;;;;;;12.50;4.85;;;;;;;;;;5023698;28;20125;-78
2023/07/16 07:00:27;;;;;;;13.85;5.70;;;;;;;;;;5023423;28;20045;-77
2023/07/16 07:03:34;;;;;;;15.68;5.47;;;;;;;;;;5024669;28;20025;-77
2023/07/16 07:06:01;;;;;;;11.75;5.00;;;;;;;;;;5022660;28;20120;-77
2023/07/16 07:08:27;;;;;;;12.05;4.88;;;;;;;;;;5024364;28;20499;-77
2023/07/16 07:11:00;;;;;;;13.60;4.95;;;;;;;;;;5026841;28;20048;-77
2023/07/16 07:13:26;;;;;;;11.93;4.40;;;;;;;;;;5043957;28;20837;-77
2023/07/16 07:15:52;;;;;;;14.40;4.82;;;;;;;;;;5043164;28;20033;-77
2023/07/16 07:18:27;;;;;;;12.75;4.55;;;;;;;;;;5025781;28;20044;-77
2023/07/16 07:20:55;;;;;;;14.13;5.68;;;;;;;;;;5043661;28;20040;-77
2023/07/16 07:23:21;;;;;;;11.43;5.13;;;;;;;;;;5043374;28;20025;-77
2023/07/16 07:25:52;;;;;;;11.48;4.80;;;;;;;;;;5044515;28;20191;-77
2023/07/16 07:28:24;;;;;;;13.32;5.18;;;;;;;;;;5044003;28;20037;-79
2023/07/16 07:30:53;;;;;;;13.25;4.85;;;;;;;;;;5044064;28;20100;-77
2023/07/16 07:33:22;;;;;;;14.95;5.28;;;;;;;;;;5044323;28;20029;-77
2023/07/16 07:35:55;;;;;;;12.55;4.68;;;;;;;;;;5043145;28;20765;-77
2023/07/16 07:38:21;;;;;;;15.52;4.70;;;;;;;;;;5020532;28;20565;-77
2023/07/16 07:41:01;;;;;;;11.27;4.43;;;;;;;;;;5023134;28;20022;-77
2023/07/16 07:45:07;;;;;;;21.50;5.78;;;;;;;;;;5023994;28;20037;-77
2023/07/16 07:53:59;;;;;;;8.30;4.60;;;;;;;;;;4862087;29;20102;-79
2023/07/16 07:56:52;;;;;;;13.50;4.40;;;;;;;;;;4899794;29;20539;-78
2023/07/16 08:00:13;;;;;;;12.75;4.30;;;;;;;;;;4908028;29;20272;-78
2023/07/16 08:02:45;;;;;;;10.63;5.13;;;;;;;;;;4947838;28;20046;-78
2023/07/16 08:05:21;;;;;;;9.43;4.50;;;;;;;;;;5003613;28;20038;-79
2023/07/16 08:07:49;;;;;;;10.93;4.45;;;;;;;;;;5027954;28;20044;-83
2023/07/16 08:10:18;;;;;;;10.57;4.70;;;;;;;;;;5027939;28;20038;-83
2023/07/16 08:12:45;;;;;;;6.95;4.18;;;;;;;;;;5027766;28;20044;-79
2023/07/16 08:15:14;;;;;;;10.27;4.20;;;;;;;;;;5027036;28;20067;-78
2023/07/16 08:17:51;;;;;;;17.83;5.13;;;;;;;;;;5023290;28;20582;-78
2023/07/16 08:20:20;;;;;;;10.93;4.80;;;;;;;;;;5027211;28;20022;-78
2023/07/16 08:22:45;;;;;;;11.05;4.40;;;;;;;;;;5026637;28;20091;-78
2023/07/16 08:25:15;;;;;;;10.65;4.53;;;;;;;;;;5026158;28;20041;-78
2023/07/16 08:27:44;;;;;;;10.25;4.50;;;;;;;;;;5026409;28;20037;-78
2023/07/16 08:30:20;;;;;;;;;;;;;;;;;;;;;
2023/07/16 08:36:02;;;;;;;9.57;5.07;;;;;;;;;;4955175;28;20050;-77
2023/07/16 08:38:28;;;;;;;11.88;4.30;;;;;;;;;;4940846;28;20432;-78
2023/07/16 08:40:55;;;;;;;10.00;4.30;;;;;;;;;;4979438;28;20058;-78
2023/07/16 08:43:22;;;;;;;10.45;4.47;;;;;;;;;;5003920;28;20590;-78
2023/07/16 08:46:00;;;;;;;12.60;4.90;;;;;;;;;;5018883;28;20034;-78
2023/07/16 08:51:20;;;;;;;12.75;4.88;;;;;;;;;;4972688;28;20136;-78
2023/07/16 08:54:15;;;;;;;8.93;4.03;;;;;;;;;;5019033;28;20033;-78
2023/07/16 08:56:49;;;;;;;8.85;4.10;;;;;;;;;;5013481;28;20545;-78
2023/07/16 08:59:49;;;;;;;;;;;;;;;;;;;;;
2023/07/16 09:02:59;;;;;;;10.00;4.35;;;;;;;;;;5006292;28;21607;-78
2023/07/16 09:05:44;;;;;;;9.82;3.80;;;;;;;;;;5007011;28;20030;-78
2023/07/16 09:08:31;;;;;;;9.20;3.85;;;;;;;;;;5010837;28;20087;-78
2023/07/16 09:11:00;;;;;;;10.13;4.03;;;;;;;;;;5010524;28;20259;-78
2023/07/16 09:14:14;;;;;;;7.90;3.90;;;;;;;;;;5047549;28;20068;-78
2023/07/16 09:24:14;;;;;;;;;;;;;;;;;;;;;
2023/07/16 09:30:04;;;;;;;10.52;4.20;;;;;;;;;;4985538;28;20041;-78
2023/07/16 09:32:39;;;;;;;10.20;4.03;;;;;;;;;;5045790;28;20029;-78
2023/07/16 09:35:16;;;;;;;9.30;3.85;;;;;;;;;;5034409;28;20040;-78
2023/07/16 09:37:56;;;;;;;8.07;3.47;;;;;;;;;;5025896;28;20080;-79
2023/07/16 09:40:29;;;;;;;8.95;4.13;;;;;;;;;;5026640;28;20080;-79
2023/07/16 09:43:01;;;;;;;7.43;3.25;;;;;;;;;;5026949;28;20049;-79
2023/07/16 09:45:37;;;;;;;11.05;3.95;;;;;;;;;;5027108;28;20147;-79
2023/07/16 09:48:10;;;;;;;6.47;3.22;;;;;;;;;;5020328;28;20037;-79
2023/07/16 09:50:48;;;;;;;;;;;;;;;;;;;;;
2023/07/16 09:53:50;;;;;;;6.60;2.80;;;;;;;;;;5012517;28;20430;-79
2023/07/16 09:56:44;;;;;;;8.27;3.15;;;;;;;;;;4926943;29;20133;-79
2023/07/16 09:59:16;;;;;;;7.78;3.20;;;;;;;;;;4941686;29;20058;-78
2023/07/16 10:02:15;;;;;;;12.07;3.13;;;;;;;;;;5001554;28;20037;-78
2023/07/16 10:04:41;;;;;;;8.05;3.20;;;;;;;;;;5024026;28;20531;-78
2023/07/16 10:07:40;;;;;;;;;;;;;;;;;;;;;
2023/07/16 10:10:33;;;;;;;10.45;4.18;;;;;;;;;;5008440;28;20466;-78
2023/07/16 10:13:06;;;;;;;8.85;3.88;;;;;;;;;;4995361;28;20517;-78
2023/07/16 10:15:35;;;;;;;10.32;3.72;;;;;;;;;;5005316;28;20040;-78
2023/07/16 10:18:10;;;;;;;9.57;3.25;;;;;;;;;;5005979;28;20038;-79
2023/07/16 10:20:48;;;;;;;5.60;2.80;;;;;;;;;;5005611;28;20119;-78
2023/07/16 10:23:21;;;;;;;12.45;3.25;;;;;;;;;;5006603;28;20105;-78
2023/07/16 10:27:05;;;;;;;7.30;3.67;;;;;;;;;;5004956;28;20041;-78
2023/07/16 10:29:08;;;;;;;10.90;3.72;;;;;;;;;;4967930;28;20053;-78
2023/07/16 10:34:28;;;;;;;9.57;3.15;;;;;;;;;;5003874;28;20041;-78
2023/07/16 10:36:54;;;;;;;7.32;3.28;;;;;;;;;;5020111;28;20045;-78
2023/07/16 10:39:25;;;;;;;5.28;2.75;;;;;;;;;;5024677;28;20021;-78
2023/07/16 10:45:25;;;;;;;5.60;2.90;;;;;;;;;;4933039;29;20039;-78
2023/07/16 10:51:02;;;;;;;9.27;3.00;;;;;;;;;;4915689;28;20509;-78
2023/07/16 10:53:33;;;;;;;9.82;3.88;;;;;;;;;;4944158;29;20099;-78
2023/07/16 10:56:01;;;;;;;8.07;3.15;;;;;;;;;;4986450;28;20033;-78
2023/07/16 10:58:27;;;;;;;9.20;3.97;;;;;;;;;;5021358;28;20129;-78
2023/07/16 11:00:56;;;;;;;8.23;3.45;;;;;;;;;;5023064;28;20151;-78
2023/07/16 11:04:19;;;;;;;11.55;3.83;;;;;;;;;;5007142;28;20908;-78
2023/07/16 11:06:35;;;;;;;;;;;;;;;;;;;;;
2023/07/16 11:09:11;;;;;;;6.80;3.22;;;;;;;;;;5024393;28;20039;-78
2023/07/16 11:11:37;;;;;;;5.35;3.05;;;;;;;;;;5014036;28;20188;-78
2023/07/16 11:14:07;;;;;;;9.20;3.20;;;;;;;;;;5020760;28;20025;-78
2023/07/16 11:16:39;;;;;;;7.40;3.53;;;;;;;;;;5024514;28;20038;-78
2023/07/16 11:19:05;;;;;;;8.05;3.55;;;;;;;;;;5024097;28;20854;-78
2023/07/16 11:22:07;;;;;;;8.40;2.97;;;;;;;;;;5010485;28;20037;-78
2023/07/16 11:24:38;;;;;;;7.05;3.40;;;;;;;;;;5025030;28;20045;-77
2023/07/16 11:27:12;;;;;;;7.25;3.50;;;;;;;;;;5022525;28;20041;-78
2023/07/16 11:29:38;;;;;;;9.23;3.65;;;;;;;;;;5022615;28;20025;-78
2023/07/16 11:32:24;;;;;;;;;;;;;;;;;;;;;
2023/07/16 11:34:57;;;;;;;8.38;3.30;;;;;;;;;;5019516;28;20049;-78
2023/07/16 11:40:39;;;;;;;6.18;3.20;;;;;;;;;;4986860;28;20065;-78
2023/07/16 11:43:36;;;;;;;6.07;3.28;;;;;;;;;;5004741;28;20044;-78
2023/07/16 11:45:59;;;;;;;9.30;3.58;;;;;;;;;;5003297;28;20048;-78
2023/07/16 11:48:51;;;;;;;7.03;3.53;;;;;;;;;;5003851;28;20038;-78
2023/07/16 11:51:18;;;;;;;7.45;3.25;;;;;;;;;;4996262;28;20060;-78
2023/07/16 11:53:49;;;;;;;7.72;3.10;;;;;;;;;;5002567;28;20043;-78
2023/07/16 11:56:35;;;;;;;7.63;2.88;;;;;;;;;;5036023;28;20709;-78
2023/07/16 11:59:26;;;;;;;9.15;2.83;;;;;;;;;;5022715;28;20037;-78
2023/07/16 12:01:54;;;;;;;4.85;2.70;;;;;;;;;;5024891;28;20057;-78
2023/07/16 12:04:37;;;;;;;5.70;2.60;;;;;;;;;;5024857;28;20056;-78
2023/07/16 12:07:03;;;;;;;4.82;2.45;;;;;;;;;;5022997;28;20044;-78
2023/07/16 12:16:29;;;;;;;6.10;2.72;;;;;;;;;;4884818;29;20124;-78
2023/07/16 12:22:34;;;;;;;5.60;2.45;;;;;;;;;;4821773;29;20057;-78
2023/07/16 12:25:09;;;;;;;6.68;2.40;;;;;;;;;;4885009;29;20581;-77
2023/07/16 12:27:37;;;;;;;5.93;2.88;;;;;;;;;;4948990;28;20140;-78
2023/07/16 12:30:03;;;;;;;7.75;2.50;;;;;;;;;;4982470;28;20052;-78
2023/07/16 12:32:42;;;;;;;5.57;3.05;;;;;;;;;;5006325;28;20041;-78
2023/07/16 12:35:07;;;;;;;4.28;2.63;;;;;;;;;;5006490;28;20076;-78
2023/07/16 12:37:38;;;;;;;5.03;2.70;;;;;;;;;;5005993;28;20034;-78
2023/07/16 12:40:05;;;;;;;7.20;2.92;;;;;;;;;;5004934;28;20038;-78
2023/07/16 12:42:38;;;;;;;8.07;2.50;;;;;;;;;;5004010;28;20069;-78
2023/07/16 12:45:36;;;;;;;;;;;;;;;;;;5006488;28;20045;-78
2023/07/16 12:48:05;;;;;;;5.40;2.70;;;;;;;;;;5000081;28;19914;-78
2023/07/16 12:50:34;;;;;;;8.05;2.78;;;;;;;;;;5004706;28;20080;-78
2023/07/16 12:54:06;;;;;;;;;;;;;;;;;;;;;
2023/07/16 12:56:33;;;;;;;7.57;2.60;;;;;;;;;;4989720;28;20080;-78
2023/07/16 12:59:07;;;;;;;10.43;2.03;;;;;;;;;;5004997;28;20543;-78
2023/07/16 13:02:06;;;;;;;4.35;2.03;;;;;;;;;;5005920;28;20541;-78
2023/07/16 13:04:31;;;;;;;6.97;2.40;;;;;;;;;;4978667;28;20459;-78
2023/07/16 13:07:00;;;;;;;5.78;2.20;;;;;;;;;;5005164;28;20046;-78
2023/07/16 13:09:32;;;;;;;3.28;2.03;;;;;;;;;;5005348;28;20408;-78
2023/07/16 13:12:07;;;;;;;3.25;1.77;;;;;;;;;;5028132;28;20064;-78
2023/07/16 13:14:36;;;;;;;7.20;2.28;;;;;;;;;;5045478;28;20033;-78
2023/07/16 13:17:07;;;;;;;8.73;2.80;;;;;;;;;;5026218;28;20084;-78
2023/07/16 13:19:57;;;;;;;5.22;2.50;;;;;;;;;;5023855;28;20507;-78
2023/07/16 13:25:22;;;;;;;4.75;2.70;;;;;;;;;;5004771;28;20139;-78
2023/07/16 13:28:20;;;;;;;4.55;2.60;;;;;;;;;;5023522;28;20045;-78
2023/07/16 13:31:09;;;;;;;6.10;2.92;;;;;;;;;;5023354;28;20045;-77
2023/07/16 13:33:36;;;;;;;5.68;2.50;;;;;;;;;;5023127;28;20041;-77
2023/07/16 13:39:30;;;;;;;6.30;2.33;;;;;;;;;;4952607;28;20039;-77
2023/07/16 13:42:06;;;;;;;4.85;2.47;;;;;;;;;;5010235;28;20049;-77
2023/07/16 13:44:39;;;;;;;9.23;3.40;;;;;;;;;;5021335;28;20025;-77
2023/07/16 13:47:56;;;;;;;;;;;;;;;;;;;;;
2023/07/16 13:50:41;;;;;;;5.07;2.60;;;;;;;;;;4954150;28;21512;-77
2023/07/16 13:53:07;;;;;;;4.07;2.13;;;;;;;;;;5002193;28;20498;-77
2023/07/16 13:55:44;;;;;;;3.85;2.15;;;;;;;;;;4984314;28;20232;-77
2023/07/16 13:58:23;;;;;;;;;;;;;;;;;;;;;
2023/07/16 14:01:06;;;;;;;5.47;2.53;;;;;;;;;;5001005;28;20042;-78
2023/07/16 14:03:32;;;;;;;4.97;2.30;;;;;;;;;;5001783;28;20125;-78
2023/07/16 14:06:01;;;;;;;4.25;2.05;;;;;;;;;;5001643;28;20034;-78
2023/07/16 14:08:27;;;;;;;4.60;1.88;;;;;;;;;;5020132;28;20041;-78
2023/07/16 14:11:22;;;;;;;3.80;2.08;;;;;;;;;;5024377;28;20036;-78
2023/07/16 14:16:39;;;;;;;4.05;1.70;;;;;;;;;;5018557;28;20104;-78
2023/07/16 14:19:05;;;;;;;3.38;1.92;;;;;;;;;;5006409;28;20034;-77
2023/07/16 14:21:39;;;;;;;2.92;1.90;;;;;;;;;;5003395;28;20808;-78
2023/07/16 14:24:05;;;;;;;4.40;2.00;;;;;;;;;;5005042;28;20103;-78
2023/07/16 14:26:31;;;;;;;3.65;1.95;;;;;;;;;;5004807;28;20746;-78
2023/07/16 14:29:21;;;;;;;4.82;1.60;;;;;;;;;;5005326;28;20049;-78
2023/07/16 14:32:02;;;;;;;;;;;;;;;;;;;;;
2023/07/16 14:35:22;;;;;;;5.20;2.03;;;;;;;;;;4999158;28;20049;-78
2023/07/16 14:38:11;;;;;;;4.82;2.10;;;;;;;;;;5003245;28;20523;-77
2023/07/16 14:40:37;;;;;;;5.18;1.92;;;;;;;;;;5002845;28;20052;-78
2023/07/16 14:43:08;;;;;;;5.05;2.30;;;;;;;;;;5018114;28;20470;-78
2023/07/16 14:45:43;;;;;;;6.07;1.90;;;;;;;;;;5004081;28;20041;-78
2023/07/16 14:48:55;;;;;;;4.18;1.90;;;;;;;;;;5019177;28;20071;-78
2023/07/16 14:51:00;;;;;;;4.70;2.25;;;;;;;;;;5001632;28;20155;-78
2023/07/16 14:53:29;;;;;;;4.55;2.50;;;;;;;;;;5009900;28;20116;-78
2023/07/16 14:55:55;;;;;;;9.88;2.60;;;;;;;;;;5023765;28;20036;-77
2023/07/16 14:58:36;;;;;;;5.78;2.88;;;;;;;;;;5035036;28;20383;-78
2023/07/16 15:01:26;;;;;;;5.65;2.45;;;;;;;;;;5037978;28;20128;-77
2023/07/16 15:07:07;;;;;;;5.72;2.63;;;;;;;;;;5019361;28;20038;-77
2023/07/16 15:09:37;;;;;;;7.63;2.60;;;;;;;;;;5038599;28;20467;-77
2023/07/16 15:12:05;;;;;;;4.07;2.22;;;;;;;;;;5042962;28;20064;-77
2023/07/16 15:14:31;;;;;;;7.32;2.50;;;;;;;;;;5043105;28;20082;-77
2023/07/16 15:16:56;;;;;;;4.38;2.33;;;;;;;;;;5023054;28;20110;-77
2023/07/16 15:19:22;;;;;;;6.85;2.50;;;;;;;;;;5024231;28;20099;-78
2023/07/16 15:21:48;;;;;;;4.70;2.65;;;;;;;;;;5023696;28;20132;-77
2023/07/16 15:24:13;;;;;;;3.95;2.25;;;;;;;;;;5012300;28;20065;-77
2023/07/16 15:26:39;;;;;;;4.25;2.28;;;;;;;;;;5022496;28;20144;-77
2023/07/16 15:29:05;;;;;;;4.57;2.35;;;;;;;;;;5024218;28;20025;-77
2023/07/16 15:31:31;;;;;;;4.18;2.20;;;;;;;;;;5021607;28;20056;-77
2023/07/16 15:33:57;;;;;;;5.22;2.00;;;;;;;;;;5015069;28;20045;-77
2023/07/16 15:36:25;;;;;;;3.58;1.90;;;;;;;;;;5021604;28;20099;-77
2023/07/16 15:38:51;;;;;;;2.28;1.60;;;;;;;;;;5013325;28;20087;-78
2023/07/16 15:41:25;;;;;;;2.58;1.40;;;;;;;;;;5014932;28;20053;-78
2023/07/16 15:43:54;;;;;;;1.77;1.20;;;;;;;;;;5018401;28;20064;-77
2023/07/16 15:46:20;;;;;;;2.80;1.10;;;;;;;;;;5022539;28;20041;-77
2023/07/16 15:48:46;;;;;;;2.15;1.30;;;;;;;;;;5022861;28;20451;-77
2023/07/16 15:51:12;;;;;;;2.33;1.40;;;;;;;;;;5022913;28;20067;-77
2023/07/16 15:53:42;;;;;;;2.60;1.27;;;;;;;;;;5022314;28;20040;-77
2023/07/16 15:57:03;;;;;;;4.93;1.40;;;;;;;;;;5023541;28;20037;-78
2023/07/16 16:09:05;;;;;;;4.88;2.03;;;;;;;;;;4979103;28;20142;-78
2023/07/16 16:11:36;;;;;;;2.00;1.40;;;;;;;;;;5000908;28;20124;-78
2023/07/16 16:14:42;;;;;;;2.67;1.55;;;;;;;;;;5024321;28;20049;-78
2023/07/16 16:17:53;;;;;;;2.55;1.55;;;;;;;;;;4956929;28;20058;-78
2023/07/16 16:20:38;;;;;;;2.63;1.40;;;;;;;;;;4950965;28;20078;-78
2023/07/16 16:23:04;;;;;;;3.85;1.50;;;;;;;;;;4963857;28;20098;-77
2023/07/16 16:25:32;;;;;;;2.25;1.45;;;;;;;;;;4997084;28;20134;-77
2023/07/16 16:28:38;;;;;;;3.15;1.52;;;;;;;;;;5006493;28;20046;-77
2023/07/16 16:31:09;;;;;;;2.97;1.95;;;;;;;;;;5012472;28;20129;-78
2023/07/16 16:33:35;;;;;;;2.60;1.80;;;;;;;;;;5025158;28;20056;-78
2023/07/16 16:36:02;;;;;;;2.40;1.58;;;;;;;;;;5046931;28;20094;-78
2023/07/16 16:38:28;;;;;;;3.28;1.65;;;;;;;;;;5046609;28;20044;-78
2023/07/16 16:41:03;;;;;;;3.88;1.80;;;;;;;;;;5040984;28;20053;-78
2023/07/16 16:43:29;;;;;;;4.60;1.98;;;;;;;;;;5006991;28;20115;-78
2023/07/16 16:45:56;;;;;;;4.07;1.80;;;;;;;;;;5026526;28;20065;-78
2023/07/16 16:48:24;;;;;;;3.20;1.50;;;;;;;;;;5026466;28;20414;-78
2023/07/16 16:50:51;;;;;;;3.75;2.15;;;;;;;;;;5025947;28;20100;-78
2023/07/16 16:53:17;;;;;;;2.80;1.73;;;;;;;;;;5026706;28;20033;-79
2023/07/16 16:55:43;;;;;;;2.90;1.98;;;;;;;;;;5024794;28;20053;-78
2023/07/16 16:58:09;;;;;;;3.25;1.85;;;;;;;;;;5025902;28;20056;-78
2023/07/16 17:00:34;;;;;;;3.60;1.90;;;;;;;;;;5025365;28;20053;-79
2023/07/16 17:03:00;;;;;;;4.30;1.90;;;;;;;;;;5024791;28;20041;-78